sensor_id;sensor_type;location;lat;lon;timestamp;P1;durP1;ratioP1;P2;durP2;ratioP2
52025;SDS011;38041;40.058;18.328;2023-03-14T00:01:16;7.10;;;3.53;;
52025;SDS011;38041;40.058;18.328;2023-03-14T00:03:44;14.43;;;5.07;;
52025;SDS011;38041;40.058;18.328;2023-03-14T00:06:12;8.67;;;4.40;;
52025;SDS011;38041;40.058;18.328;2023-03-14T00:08:41;6.20;;;4.27;;
52025;SDS011;38041;40.058;18.328;2023-03-14T00:11:10;8.17;;;3.40;;
52025;SDS011;38041;40.058;18.328;2023-03-14T00:13:38;10.90;;;5.27;;
52025;SDS011;38041;40.058;18.328;2023-03-14T00:16:07;7.50;;;3.40;;
52025;SDS011;38041;40.058;18.328;2023-03-14T00:18:35;8.10;;;3.83;;
52025;SDS011;38041;40.058;18.328;2023-03-14T00:21:03;8.63;;;3.30;;
52025;SDS011;38041;40.058;18.328;2023-03-14T00:23:32;4.80;;;3.03;;
52025;SDS011;38041;40.058;18.328;2023-03-14T00:26:00;5.37;;;2.77;;
52025;SDS011;38041;40.058;18.328;2023-03-14T00:28:28;7.43;;;2.77;;
52025;SDS011;38041;40.058;18.328;2023-03-14T00:30:56;7.30;;;3.37;;
52025;SDS011;38041;40.058;18.328;2023-03-14T00:33:24;6.17;;;2.93;;
52025;SDS011;38041;40.058;18.328;2023-03-14T00:35:56;7.57;;;3.10;;
52025;SDS011;38041;40.058;18.328;2023-03-14T00:38:23;13.20;;;5.10;;
52025;SDS011;38041;40.058;18.328;2023-03-14T00:40:52;16.97;;;4.37;;
52025;SDS011;38041;40.058;18.328;2023-03-14T00:43:20;16.83;;;4.70;;
52025;SDS011;38041;40.058;18.328;2023-03-14T00:45:51;15.43;;;3.47;;
52025;SDS011;38041;40.058;18.328;2023-03-14T00:48:19;8.27;;;3.50;;
52025;SDS011;38041;40.058;18.328;2023-03-14T00:50:47;8.90;;;3.40;;
52025;SDS011;38041;40.058;18.328;2023-03-14T00:53:15;12.47;;;6.70;;
52025;SDS011;38041;40.058;18.328;2023-03-14T00:55:44;13.17;;;7.07;;
52025;SDS011;38041;40.058;18.328;2023-03-14T00:58:13;12.90;;;6.37;;
52025;SDS011;38041;40.058;18.328;2023-03-14T01:00:41;20.17;;;8.80;;
52025;SDS011;38041;40.058;18.328;2023-03-14T01:03:09;14.43;;;7.33;;
52025;SDS011;38041;40.058;18.328;2023-03-14T01:05:37;15.03;;;6.33;;
52025;SDS011;38041;40.058;18.328;2023-03-14T01:08:05;14.20;;;6.40;;
52025;SDS011;38041;40.058;18.328;2023-03-14T01:10:34;11.17;;;6.67;;
52025;SDS011;38041;40.058;18.328;2023-03-14T01:13:04;16.27;;;7.57;;
52025;SDS011;38041;40.058;18.328;2023-03-14T01:15:35;12.33;;;6.67;;
52025;SDS011;38041;40.058;18.328;2023-03-14T01:18:02;13.20;;;6.87;;
52025;SDS011;38041;40.058;18.328;2023-03-14T01:20:30;9.83;;;5.27;;
52025;SDS011;38041;40.058;18.328;2023-03-14T01:22:58;15.60;;;6.33;;
52025;SDS011;38041;40.058;18.328;2023-03-14T01:25:25;13.07;;;5.53;;
52025;SDS011;38041;40.058;18.328;2023-03-14T01:27:54;11.43;;;5.57;;
52025;SDS011;38041;40.058;18.328;2023-03-14T01:30:21;13.33;;;6.50;;
52025;SDS011;38041;40.058;18.328;2023-03-14T01:32:49;8.80;;;5.90;;
52025;SDS011;38041;40.058;18.328;2023-03-14T01:35:18;10.57;;;7.80;;
52025;SDS011;38041;40.058;18.328;2023-03-14T01:37:46;11.57;;;5.73;;
52025;SDS011;38041;40.058;18.328;2023-03-14T01:40:18;12.10;;;6.83;;
52025;SDS011;38041;40.058;18.328;2023-03-14T01:42:56;8.17;;;5.73;;
52025;SDS011;38041;40.058;18.328;2023-03-14T01:48:11;14.93;;;6.63;;
52025;SDS011;38041;40.058;18.328;2023-03-14T01:50:38;17.33;;;9.63;;
52025;SDS011;38041;40.058;18.328;2023-03-14T01:53:06;13.27;;;7.77;;
52025;SDS011;38041;40.058;18.328;2023-03-14T01:55:35;12.00;;;8.20;;
52025;SDS011;38041;40.058;18.328;2023-03-14T01:58:03;13.67;;;7.43;;
52025;SDS011;38041;40.058;18.328;2023-03-14T02:00:32;14.83;;;8.77;;
52025;SDS011;38041;40.058;18.328;2023-03-14T02:03:10;11.63;;;7.80;;
52025;SDS011;38041;40.058;18.328;2023-03-14T02:05:39;12.87;;;9.10;;
52025;SDS011;38041;40.058;18.328;2023-03-14T02:08:15;15.60;;;8.20;;
52025;SDS011;38041;40.058;18.328;2023-03-14T02:10:50;11.00;;;7.22;;
52025;SDS011;38041;40.058;18.328;2023-03-14T02:13:24;11.17;;;6.80;;
52025;SDS011;38041;40.058;18.328;2023-03-14T02:16:30;11.68;;;7.68;;
52025;SDS011;38041;40.058;18.328;2023-03-14T02:19:35;12.17;;;7.80;;
52025;SDS011;38041;40.058;18.328;2023-03-14T02:22:18;14.33;;;8.87;;
52025;SDS011;38041;40.058;18.328;2023-03-14T02:27:37;11.57;;;6.40;;
52025;SDS011;38041;40.058;18.328;2023-03-14T02:30:11;10.30;;;5.93;;
52025;SDS011;38041;40.058;18.328;2023-03-14T02:32:41;10.13;;;4.67;;
52025;SDS011;38041;40.058;18.328;2023-03-14T02:35:14;8.07;;;5.50;;
52025;SDS011;38041;40.058;18.328;2023-03-14T02:37:48;16.67;;;6.10;;
52025;SDS011;38041;40.058;18.328;2023-03-14T02:40:17;6.33;;;4.03;;
52025;SDS011;38041;40.058;18.328;2023-03-14T02:42:48;6.90;;;4.40;;
52025;SDS011;38041;40.058;18.328;2023-03-14T02:47:49;6.10;;;3.60;;
52025;SDS011;38041;40.058;18.328;2023-03-14T02:50:22;5.87;;;3.50;;
52025;SDS011;38041;40.058;18.328;2023-03-14T02:52:51;6.80;;;2.97;;
52025;SDS011;38041;40.058;18.328;2023-03-14T02:55:22;5.67;;;2.87;;
52025;SDS011;38041;40.058;18.328;2023-03-14T02:57:53;6.63;;;2.93;;
52025;SDS011;38041;40.058;18.328;2023-03-14T03:00:20;7.67;;;3.43;;
52025;SDS011;38041;40.058;18.328;2023-03-14T03:02:48;5.33;;;3.17;;
52025;SDS011;38041;40.058;18.328;2023-03-14T03:05:16;6.63;;;3.33;;
52025;SDS011;38041;40.058;18.328;2023-03-14T03:07:43;4.80;;;3.00;;
52025;SDS011;38041;40.058;18.328;2023-03-14T03:10:11;5.63;;;3.50;;
52025;SDS011;38041;40.058;18.328;2023-03-14T03:12:39;7.70;;;3.73;;
52025;SDS011;38041;40.058;18.328;2023-03-14T03:15:07;5.13;;;2.87;;
52025;SDS011;38041;40.058;18.328;2023-03-14T03:17:36;3.00;;;2.50;;
52025;SDS011;38041;40.058;18.328;2023-03-14T03:20:05;6.73;;;3.37;;
52025;SDS011;38041;40.058;18.328;2023-03-14T03:22:36;5.47;;;3.20;;
52025;SDS011;38041;40.058;18.328;2023-03-14T03:25:04;5.23;;;1.90;;
52025;SDS011;38041;40.058;18.328;2023-03-14T03:27:33;4.03;;;2.23;;
52025;SDS011;38041;40.058;18.328;2023-03-14T03:30:01;6.07;;;2.07;;
52025;SDS011;38041;40.058;18.328;2023-03-14T03:32:31;7.50;;;2.33;;
52025;SDS011;38041;40.058;18.328;2023-03-14T03:34:59;2.70;;;1.97;;
52025;SDS011;38041;40.058;18.328;2023-03-14T03:37:29;3.23;;;1.97;;
52025;SDS011;38041;40.058;18.328;2023-03-14T03:39:57;5.50;;;1.97;;
52025;SDS011;38041;40.058;18.328;2023-03-14T03:42:26;4.93;;;1.57;;
52025;SDS011;38041;40.058;18.328;2023-03-14T03:44:54;4.50;;;1.50;;
52025;SDS011;38041;40.058;18.328;2023-03-14T03:47:22;2.00;;;1.13;;
52025;SDS011;38041;40.058;18.328;2023-03-14T03:49:50;4.60;;;1.43;;
52025;SDS011;38041;40.058;18.328;2023-03-14T03:52:19;2.03;;;1.17;;
52025;SDS011;38041;40.058;18.328;2023-03-14T03:54:47;4.47;;;1.67;;
52025;SDS011;38041;40.058;18.328;2023-03-14T03:57:15;5.03;;;2.37;;
52025;SDS011;38041;40.058;18.328;2023-03-14T03:59:43;3.30;;;1.20;;
52025;SDS011;38041;40.058;18.328;2023-03-14T04:02:10;4.30;;;1.70;;
52025;SDS011;38041;40.058;18.328;2023-03-14T04:04:38;6.60;;;1.90;;
52025;SDS011;38041;40.058;18.328;2023-03-14T04:07:06;4.43;;;1.93;;
52025;SDS011;38041;40.058;18.328;2023-03-14T04:09:34;4.43;;;0.90;;
52025;SDS011;38041;40.058;18.328;2023-03-14T04:12:20;2.93;;;1.03;;
52025;SDS011;38041;40.058;18.328;2023-03-14T04:14:54;5.43;;;1.40;;
52025;SDS011;38041;40.058;18.328;2023-03-14T04:17:22;3.10;;;1.03;;
52025;SDS011;38041;40.058;18.328;2023-03-14T04:19:50;2.80;;;1.43;;
52025;SDS011;38041;40.058;18.328;2023-03-14T04:22:23;3.47;;;1.20;;
52025;SDS011;38041;40.058;18.328;2023-03-14T04:24:52;5.07;;;1.67;;
52025;SDS011;38041;40.058;18.328;2023-03-14T04:27:20;3.73;;;0.87;;
52025;SDS011;38041;40.058;18.328;2023-03-14T04:29:48;3.13;;;1.00;;
52025;SDS011;38041;40.058;18.328;2023-03-14T04:32:21;1.60;;;1.03;;
52025;SDS011;38041;40.058;18.328;2023-03-14T04:34:49;3.60;;;1.77;;
52025;SDS011;38041;40.058;18.328;2023-03-14T04:37:17;2.10;;;1.10;;
52025;SDS011;38041;40.058;18.328;2023-03-14T04:39:45;5.90;;;1.10;;
52025;SDS011;38041;40.058;18.328;2023-03-14T04:42:25;2.50;;;0.67;;
52025;SDS011;38041;40.058;18.328;2023-03-14T04:44:53;5.60;;;0.90;;
52025;SDS011;38041;40.058;18.328;2023-03-14T04:47:24;3.97;;;0.70;;
52025;SDS011;38041;40.058;18.328;2023-03-14T04:49:52;5.53;;;1.20;;
52025;SDS011;38041;40.058;18.328;2023-03-14T04:52:22;2.80;;;0.70;;
52025;SDS011;38041;40.058;18.328;2023-03-14T04:54:51;3.97;;;1.03;;
52025;SDS011;38041;40.058;18.328;2023-03-14T04:57:20;40.30;;;21.57;;
52025;SDS011;38041;40.058;18.328;2023-03-14T04:59:49;20.97;;;11.83;;
52025;SDS011;38041;40.058;18.328;2023-03-14T05:02:46;18.00;;;12.67;;
52025;SDS011;38041;40.058;18.328;2023-03-14T05:05:31;13.20;;;7.88;;
52025;SDS011;38041;40.058;18.328;2023-03-14T05:08:01;4.70;;;2.37;;
52025;SDS011;38041;40.058;18.328;2023-03-14T05:10:56;3.97;;;1.90;;
52025;SDS011;38041;40.058;18.328;2023-03-14T05:13:33;3.67;;;2.00;;
52025;SDS011;38041;40.058;18.328;2023-03-14T05:16:17;8.97;;;3.17;;
52025;SDS011;38041;40.058;18.328;2023-03-14T05:18:50;6.20;;;1.70;;
52025;SDS011;38041;40.058;18.328;2023-03-14T05:21:47;6.67;;;2.47;;
52025;SDS011;38041;40.058;18.328;2023-03-14T05:24:30;9.00;;;1.53;;
52025;SDS011;38041;40.058;18.328;2023-03-14T05:27:16;9.10;;;0.90;;
52025;SDS011;38041;40.058;18.328;2023-03-14T05:30:10;6.13;;;1.47;;
52025;SDS011;38041;40.058;18.328;2023-03-14T05:33:04;8.17;;;1.20;;
52025;SDS011;38041;40.058;18.328;2023-03-14T05:35:51;5.33;;;2.07;;
52025;SDS011;38041;40.058;18.328;2023-03-14T05:38:54;7.27;;;1.40;;
52025;SDS011;38041;40.058;18.328;2023-03-14T05:41:45;6.23;;;1.63;;
52025;SDS011;38041;40.058;18.328;2023-03-14T05:44:25;5.73;;;1.63;;
52025;SDS011;38041;40.058;18.328;2023-03-14T05:47:07;7.73;;;2.40;;
52025;SDS011;38041;40.058;18.328;2023-03-14T05:49:53;7.90;;;2.20;;
52025;SDS011;38041;40.058;18.328;2023-03-14T05:52:30;7.07;;;3.00;;
52025;SDS011;38041;40.058;18.328;2023-03-14T05:55:18;7.30;;;2.40;;
52025;SDS011;38041;40.058;18.328;2023-03-14T05:58:10;7.23;;;2.93;;
52025;SDS011;38041;40.058;18.328;2023-03-14T06:01:03;6.50;;;3.07;;
52025;SDS011;38041;40.058;18.328;2023-03-14T06:04:02;12.50;;;2.43;;
52025;SDS011;38041;40.058;18.328;2023-03-14T06:06:30;4.23;;;1.27;;
52025;SDS011;38041;40.058;18.328;2023-03-14T06:08:59;11.47;;;2.10;;
52025;SDS011;38041;40.058;18.328;2023-03-14T06:11:28;7.23;;;1.27;;
52025;SDS011;38041;40.058;18.328;2023-03-14T06:13:56;4.50;;;0.70;;
52025;SDS011;38041;40.058;18.328;2023-03-14T06:16:24;10.70;;;1.57;;
52025;SDS011;38041;40.058;18.328;2023-03-14T06:18:53;3.17;;;1.70;;
52025;SDS011;38041;40.058;18.328;2023-03-14T06:21:22;10.33;;;2.03;;
52025;SDS011;38041;40.058;18.328;2023-03-14T06:23:50;8.93;;;1.57;;
52025;SDS011;38041;40.058;18.328;2023-03-14T06:26:19;9.90;;;1.40;;
52025;SDS011;38041;40.058;18.328;2023-03-14T06:28:47;6.80;;;1.40;;
52025;SDS011;38041;40.058;18.328;2023-03-14T06:31:16;7.47;;;1.30;;
52025;SDS011;38041;40.058;18.328;2023-03-14T06:33:51;7.97;;;2.80;;
52025;SDS011;38041;40.058;18.328;2023-03-14T06:36:20;6.97;;;1.10;;
52025;SDS011;38041;40.058;18.328;2023-03-14T06:38:49;6.97;;;1.27;;
52025;SDS011;38041;40.058;18.328;2023-03-14T06:41:18;6.63;;;1.13;;
52025;SDS011;38041;40.058;18.328;2023-03-14T06:43:47;9.70;;;1.17;;
52025;SDS011;38041;40.058;18.328;2023-03-14T06:46:16;7.73;;;1.07;;
52025;SDS011;38041;40.058;18.328;2023-03-14T06:48:44;5.43;;;1.40;;
52025;SDS011;38041;40.058;18.328;2023-03-14T06:51:12;5.10;;;1.23;;
52025;SDS011;38041;40.058;18.328;2023-03-14T06:53:40;9.17;;;1.87;;
52025;SDS011;38041;40.058;18.328;2023-03-14T06:56:08;9.40;;;1.90;;
52025;SDS011;38041;40.058;18.328;2023-03-14T06:58:36;10.50;;;2.90;;
52025;SDS011;38041;40.058;18.328;2023-03-14T07:01:06;11.93;;;3.27;;
52025;SDS011;38041;40.058;18.328;2023-03-14T07:03:39;12.97;;;3.37;;
52025;SDS011;38041;40.058;18.328;2023-03-14T07:06:07;11.80;;;2.67;;
52025;SDS011;38041;40.058;18.328;2023-03-14T07:08:35;7.07;;;1.17;;
52025;SDS011;38041;40.058;18.328;2023-03-14T07:11:04;12.50;;;1.50;;
52025;SDS011;38041;40.058;18.328;2023-03-14T07:13:33;14.60;;;1.93;;
52025;SDS011;38041;40.058;18.328;2023-03-14T07:16:04;5.70;;;1.50;;
52025;SDS011;38041;40.058;18.328;2023-03-14T07:18:32;10.43;;;2.50;;
52025;SDS011;38041;40.058;18.328;2023-03-14T07:21:03;11.77;;;2.63;;
52025;SDS011;38041;40.058;18.328;2023-03-14T07:23:31;10.00;;;2.47;;
52025;SDS011;38041;40.058;18.328;2023-03-14T07:26:00;13.00;;;2.70;;
52025;SDS011;38041;40.058;18.328;2023-03-14T07:28:30;8.83;;;2.80;;
52025;SDS011;38041;40.058;18.328;2023-03-14T07:31:03;8.40;;;1.57;;
52025;SDS011;38041;40.058;18.328;2023-03-14T07:33:32;8.00;;;2.57;;
52025;SDS011;38041;40.058;18.328;2023-03-14T07:36:01;5.53;;;2.10;;
52025;SDS011;38041;40.058;18.328;2023-03-14T07:38:29;11.47;;;2.50;;
52025;SDS011;38041;40.058;18.328;2023-03-14T07:41:23;9.43;;;2.50;;
52025;SDS011;38041;40.058;18.328;2023-03-14T07:44:09;7.57;;;2.07;;
52025;SDS011;38041;40.058;18.328;2023-03-14T07:46:37;5.07;;;1.53;;
52025;SDS011;38041;40.058;18.328;2023-03-14T07:49:05;11.93;;;6.33;;
52025;SDS011;38041;40.058;18.328;2023-03-14T07:51:33;13.87;;;4.67;;
52025;SDS011;38041;40.058;18.328;2023-03-14T07:54:00;5.53;;;1.50;;
52025;SDS011;38041;40.058;18.328;2023-03-14T07:56:28;6.33;;;1.93;;
52025;SDS011;38041;40.058;18.328;2023-03-14T07:58:56;7.70;;;1.50;;
52025;SDS011;38041;40.058;18.328;2023-03-14T08:01:24;9.80;;;1.73;;
52025;SDS011;38041;40.058;18.328;2023-03-14T08:03:51;10.90;;;1.20;;
52025;SDS011;38041;40.058;18.328;2023-03-14T08:06:19;8.13;;;0.93;;
52025;SDS011;38041;40.058;18.328;2023-03-14T08:08:47;4.73;;;1.27;;
52025;SDS011;38041;40.058;18.328;2023-03-14T08:11:14;3.93;;;0.90;;
52025;SDS011;38041;40.058;18.328;2023-03-14T08:13:42;8.03;;;1.43;;
52025;SDS011;38041;40.058;18.328;2023-03-14T08:16:16;6.50;;;0.60;;
52025;SDS011;38041;40.058;18.328;2023-03-14T08:18:44;26.10;;;1.77;;
52025;SDS011;38041;40.058;18.328;2023-03-14T08:21:12;19.10;;;2.33;;
52025;SDS011;38041;40.058;18.328;2023-03-14T08:23:40;7.70;;;0.43;;
52025;SDS011;38041;40.058;18.328;2023-03-14T08:26:07;4.33;;;0.87;;
52025;SDS011;38041;40.058;18.328;2023-03-14T08:28:35;4.93;;;0.90;;
52025;SDS011;38041;40.058;18.328;2023-03-14T08:31:03;4.93;;;0.53;;
52025;SDS011;38041;40.058;18.328;2023-03-14T08:33:31;7.10;;;0.83;;
52025;SDS011;38041;40.058;18.328;2023-03-14T08:35:59;4.40;;;1.43;;
52025;SDS011;38041;40.058;18.328;2023-03-14T08:38:27;6.67;;;1.73;;
52025;SDS011;38041;40.058;18.328;2023-03-14T08:40:56;8.50;;;2.03;;
52025;SDS011;38041;40.058;18.328;2023-03-14T08:43:24;6.70;;;1.87;;
52025;SDS011;38041;40.058;18.328;2023-03-14T08:45:52;5.53;;;0.90;;
52025;SDS011;38041;40.058;18.328;2023-03-14T08:48:20;21.53;;;4.13;;
52025;SDS011;38041;40.058;18.328;2023-03-14T08:50:47;6.63;;;2.37;;
52025;SDS011;38041;40.058;18.328;2023-03-14T08:53:15;7.70;;;2.00;;
52025;SDS011;38041;40.058;18.328;2023-03-14T08:55:43;8.03;;;3.60;;
52025;SDS011;38041;40.058;18.328;2023-03-14T08:58:11;17.07;;;7.63;;
52025;SDS011;38041;40.058;18.328;2023-03-14T09:00:39;5.60;;;0.80;;
52025;SDS011;38041;40.058;18.328;2023-03-14T09:03:06;7.93;;;2.10;;
52025;SDS011;38041;40.058;18.328;2023-03-14T09:05:34;7.13;;;1.50;;
52025;SDS011;38041;40.058;18.328;2023-03-14T09:08:01;9.97;;;1.47;;
52025;SDS011;38041;40.058;18.328;2023-03-14T09:10:29;5.00;;;1.63;;
52025;SDS011;38041;40.058;18.328;2023-03-14T09:12:57;7.87;;;1.17;;
52025;SDS011;38041;40.058;18.328;2023-03-14T09:15:25;6.43;;;1.57;;
52025;SDS011;38041;40.058;18.328;2023-03-14T09:17:53;10.47;;;1.70;;
52025;SDS011;38041;40.058;18.328;2023-03-14T09:20:20;10.83;;;2.73;;
52025;SDS011;38041;40.058;18.328;2023-03-14T09:22:48;9.37;;;1.83;;
52025;SDS011;38041;40.058;18.328;2023-03-14T09:25:16;6.63;;;1.03;;
52025;SDS011;38041;40.058;18.328;2023-03-14T09:27:44;12.77;;;2.20;;
52025;SDS011;38041;40.058;18.328;2023-03-14T09:30:11;12.47;;;1.37;;
52025;SDS011;38041;40.058;18.328;2023-03-14T09:32:39;10.50;;;2.13;;
52025;SDS011;38041;40.058;18.328;2023-03-14T09:35:08;10.57;;;2.13;;
52025;SDS011;38041;40.058;18.328;2023-03-14T09:37:36;5.17;;;1.13;;
52025;SDS011;38041;40.058;18.328;2023-03-14T09:40:04;11.97;;;1.00;;
52025;SDS011;38041;40.058;18.328;2023-03-14T09:42:37;8.80;;;1.00;;
52025;SDS011;38041;40.058;18.328;2023-03-14T09:45:12;9.70;;;1.20;;
52025;SDS011;38041;40.058;18.328;2023-03-14T09:47:42;7.40;;;1.33;;
52025;SDS011;38041;40.058;18.328;2023-03-14T09:50:23;5.20;;;1.13;;
52025;SDS011;38041;40.058;18.328;2023-03-14T09:52:55;6.80;;;2.37;;
52025;SDS011;38041;40.058;18.328;2023-03-14T09:55:23;6.67;;;0.70;;
52025;SDS011;38041;40.058;18.328;2023-03-14T09:57:54;8.93;;;1.07;;
52025;SDS011;38041;40.058;18.328;2023-03-14T10:00:25;14.70;;;1.17;;
52025;SDS011;38041;40.058;18.328;2023-03-14T10:03:03;8.90;;;1.30;;
52025;SDS011;38041;40.058;18.328;2023-03-14T10:05:34;8.07;;;1.00;;
52025;SDS011;38041;40.058;18.328;2023-03-14T10:08:01;10.80;;;0.77;;
52025;SDS011;38041;40.058;18.328;2023-03-14T10:10:29;6.83;;;1.17;;
52025;SDS011;38041;40.058;18.328;2023-03-14T10:13:39;5.90;;;0.87;;
52025;SDS011;38041;40.058;18.328;2023-03-14T10:16:01;13.67;;;1.17;;
52025;SDS011;38041;40.058;18.328;2023-03-14T10:18:30;8.13;;;1.33;;
52025;SDS011;38041;40.058;18.328;2023-03-14T10:21:02;4.93;;;0.60;;
52025;SDS011;38041;40.058;18.328;2023-03-14T10:23:31;5.07;;;1.97;;
52025;SDS011;38041;40.058;18.328;2023-03-14T10:28:34;6.70;;;2.00;;
52025;SDS011;38041;40.058;18.328;2023-03-14T10:31:04;6.50;;;2.40;;
52025;SDS011;38041;40.058;18.328;2023-03-14T10:33:34;8.27;;;2.57;;
52025;SDS011;38041;40.058;18.328;2023-03-14T10:36:03;6.43;;;0.73;;
52025;SDS011;38041;40.058;18.328;2023-03-14T10:38:33;18.73;;;2.90;;
52025;SDS011;38041;40.058;18.328;2023-03-14T10:41:01;6.23;;;1.57;;
52025;SDS011;38041;40.058;18.328;2023-03-14T10:43:34;5.70;;;0.50;;
52025;SDS011;38041;40.058;18.328;2023-03-14T10:46:17;3.43;;;0.60;;
52025;SDS011;38041;40.058;18.328;2023-03-14T10:49:06;12.77;;;1.10;;
52025;SDS011;38041;40.058;18.328;2023-03-14T10:51:34;5.10;;;0.70;;
52025;SDS011;38041;40.058;18.328;2023-03-14T10:54:03;7.03;;;2.87;;
52025;SDS011;38041;40.058;18.328;2023-03-14T10:56:35;2.53;;;0.30;;
52025;SDS011;38041;40.058;18.328;2023-03-14T10:59:03;4.75;;;0.70;;
52025;SDS011;38041;40.058;18.328;2023-03-14T11:06:33;7.20;;;0.98;;
52025;SDS011;38041;40.058;18.328;2023-03-14T11:11:33;8.13;;;1.00;;
52025;SDS011;38041;40.058;18.328;2023-03-14T11:14:05;7.97;;;0.68;;
52025;SDS011;38041;40.058;18.328;2023-03-14T11:16:43;8.43;;;1.23;;
52025;SDS011;38041;40.058;18.328;2023-03-14T11:24:44;8.18;;;1.10;;
52025;SDS011;38041;40.058;18.328;2023-03-14T11:27:18;6.30;;;2.70;;
52025;SDS011;38041;40.058;18.328;2023-03-14T11:29:58;3.25;;;0.60;;
52025;SDS011;38041;40.058;18.328;2023-03-14T11:34:56;5.00;;;0.97;;
52025;SDS011;38041;40.058;18.328;2023-03-14T11:37:28;6.83;;;0.90;;
52025;SDS011;38041;40.058;18.328;2023-03-14T11:40:10;3.97;;;0.40;;
52025;SDS011;38041;40.058;18.328;2023-03-14T11:42:42;5.33;;;1.40;;
52025;SDS011;38041;40.058;18.328;2023-03-14T11:45:15;9.43;;;0.50;;
52025;SDS011;38041;40.058;18.328;2023-03-14T11:47:46;5.75;;;1.48;;
52025;SDS011;38041;40.058;18.328;2023-03-14T11:50:19;10.40;;;1.20;;
52025;SDS011;38041;40.058;18.328;2023-03-14T11:52:55;7.23;;;0.83;;
52025;SDS011;38041;40.058;18.328;2023-03-14T11:55:30;9.47;;;1.40;;
52025;SDS011;38041;40.058;18.328;2023-03-14T11:58:13;17.37;;;0.80;;
52025;SDS011;38041;40.058;18.328;2023-03-14T12:00:42;11.83;;;0.70;;
52025;SDS011;38041;40.058;18.328;2023-03-14T12:03:32;7.83;;;1.20;;
52025;SDS011;38041;40.058;18.328;2023-03-14T12:06:05;3.70;;;0.77;;
52025;SDS011;38041;40.058;18.328;2023-03-14T12:13:46;4.27;;;0.60;;
52025;SDS011;38041;40.058;18.328;2023-03-14T12:18:52;7.43;;;1.53;;
52025;SDS011;38041;40.058;18.328;2023-03-14T12:21:20;5.80;;;1.53;;
52025;SDS011;38041;40.058;18.328;2023-03-14T12:23:48;10.67;;;1.57;;
52025;SDS011;38041;40.058;18.328;2023-03-14T12:26:18;8.00;;;1.47;;
52025;SDS011;38041;40.058;18.328;2023-03-14T12:41:46;9.30;;;1.90;;
52025;SDS011;38041;40.058;18.328;2023-03-14T12:46:59;5.57;;;0.80;;
52025;SDS011;38041;40.058;18.328;2023-03-14T12:49:30;7.97;;;1.50;;
52025;SDS011;38041;40.058;18.328;2023-03-14T12:51:59;8.07;;;1.77;;
52025;SDS011;38041;40.058;18.328;2023-03-14T12:57:20;11.90;;;2.40;;
52025;SDS011;38041;40.058;18.328;2023-03-14T13:02:16;6.93;;;1.13;;
52025;SDS011;38041;40.058;18.328;2023-03-14T13:04:48;6.80;;;1.97;;
52025;SDS011;38041;40.058;18.328;2023-03-14T13:09:49;9.80;;;2.83;;
52025;SDS011;38041;40.058;18.328;2023-03-14T13:12:22;10.57;;;1.50;;
52025;SDS011;38041;40.058;18.328;2023-03-14T13:14:51;6.83;;;1.07;;
52025;SDS011;38041;40.058;18.328;2023-03-14T13:17:40;9.03;;;1.37;;
52025;SDS011;38041;40.058;18.328;2023-03-14T13:20:11;14.00;;;2.47;;
52025;SDS011;38041;40.058;18.328;2023-03-14T13:22:40;13.37;;;1.70;;
52025;SDS011;38041;40.058;18.328;2023-03-14T13:25:12;15.60;;;1.50;;
52025;SDS011;38041;40.058;18.328;2023-03-14T13:27:40;8.00;;;1.10;;
52025;SDS011;38041;40.058;18.328;2023-03-14T13:30:25;5.90;;;1.13;;
52025;SDS011;38041;40.058;18.328;2023-03-14T13:32:53;7.33;;;1.47;;
52025;SDS011;38041;40.058;18.328;2023-03-14T13:35:26;6.60;;;1.43;;
52025;SDS011;38041;40.058;18.328;2023-03-14T13:37:55;17.70;;;1.30;;
52025;SDS011;38041;40.058;18.328;2023-03-14T13:40:36;10.97;;;1.20;;
52025;SDS011;38041;40.058;18.328;2023-03-14T13:43:05;10.57;;;1.63;;
52025;SDS011;38041;40.058;18.328;2023-03-14T13:45:41;12.90;;;1.30;;
52025;SDS011;38041;40.058;18.328;2023-03-14T13:50:36;10.13;;;1.90;;
52025;SDS011;38041;40.058;18.328;2023-03-14T13:53:04;10.50;;;2.03;;
52025;SDS011;38041;40.058;18.328;2023-03-14T13:55:31;9.30;;;1.20;;
52025;SDS011;38041;40.058;18.328;2023-03-14T13:57:59;10.80;;;1.30;;
52025;SDS011;38041;40.058;18.328;2023-03-14T14:00:27;12.87;;;2.43;;
52025;SDS011;38041;40.058;18.328;2023-03-14T14:02:58;18.33;;;2.00;;
52025;SDS011;38041;40.058;18.328;2023-03-14T14:05:28;9.90;;;2.53;;
52025;SDS011;38041;40.058;18.328;2023-03-14T14:07:56;15.93;;;1.07;;
52025;SDS011;38041;40.058;18.328;2023-03-14T14:10:25;18.10;;;4.70;;
52025;SDS011;38041;40.058;18.328;2023-03-14T14:13:01;12.27;;;1.97;;
52025;SDS011;38041;40.058;18.328;2023-03-14T14:15:31;10.83;;;1.70;;
52025;SDS011;38041;40.058;18.328;2023-03-14T14:18:03;17.53;;;6.37;;
52025;SDS011;38041;40.058;18.328;2023-03-14T14:20:38;13.90;;;7.60;;
52025;SDS011;38041;40.058;18.328;2023-03-14T14:23:09;32.40;;;14.60;;
52025;SDS011;38041;40.058;18.328;2023-03-14T14:25:38;20.50;;;10.20;;
52025;SDS011;38041;40.058;18.328;2023-03-14T14:28:18;30.13;;;8.30;;
52025;SDS011;38041;40.058;18.328;2023-03-14T14:33:28;14.17;;;3.27;;
52025;SDS011;38041;40.058;18.328;2023-03-14T14:35:57;24.07;;;7.80;;
52025;SDS011;38041;40.058;18.328;2023-03-14T14:38:26;14.40;;;3.73;;
52025;SDS011;38041;40.058;18.328;2023-03-14T14:40:54;9.83;;;4.33;;
52025;SDS011;38041;40.058;18.328;2023-03-14T14:43:24;13.67;;;3.50;;
52025;SDS011;38041;40.058;18.328;2023-03-14T14:45:54;9.60;;;2.57;;
52025;SDS011;38041;40.058;18.328;2023-03-14T14:48:23;17.40;;;4.20;;
52025;SDS011;38041;40.058;18.328;2023-03-14T14:51:01;13.90;;;2.40;;
52025;SDS011;38041;40.058;18.328;2023-03-14T14:58:56;13.73;;;3.77;;
52025;SDS011;38041;40.058;18.328;2023-03-14T15:01:30;18.73;;;2.70;;
52025;SDS011;38041;40.058;18.328;2023-03-14T15:03:59;13.03;;;3.47;;
52025;SDS011;38041;40.058;18.328;2023-03-14T15:06:27;15.93;;;3.33;;
52025;SDS011;38041;40.058;18.328;2023-03-14T15:08:56;16.00;;;4.13;;
52025;SDS011;38041;40.058;18.328;2023-03-14T15:11:25;14.30;;;4.60;;
52025;SDS011;38041;40.058;18.328;2023-03-14T15:13:53;20.67;;;5.47;;
52025;SDS011;38041;40.058;18.328;2023-03-14T15:16:22;16.00;;;5.63;;
52025;SDS011;38041;40.058;18.328;2023-03-14T15:18:53;20.83;;;6.23;;
52025;SDS011;38041;40.058;18.328;2023-03-14T15:21:22;19.97;;;5.50;;
52025;SDS011;38041;40.058;18.328;2023-03-14T15:23:50;23.87;;;6.10;;
52025;SDS011;38041;40.058;18.328;2023-03-14T15:26:22;21.90;;;6.87;;
52025;SDS011;38041;40.058;18.328;2023-03-14T15:28:50;22.57;;;6.57;;
52025;SDS011;38041;40.058;18.328;2023-03-14T15:31:18;22.90;;;7.83;;
52025;SDS011;38041;40.058;18.328;2023-03-14T15:33:47;20.67;;;4.03;;
52025;SDS011;38041;40.058;18.328;2023-03-14T15:36:25;19.40;;;3.40;;
52025;SDS011;38041;40.058;18.328;2023-03-14T15:38:54;15.33;;;3.93;;
52025;SDS011;38041;40.058;18.328;2023-03-14T15:41:22;14.10;;;3.17;;
52025;SDS011;38041;40.058;18.328;2023-03-14T15:43:50;19.57;;;3.20;;
52025;SDS011;38041;40.058;18.328;2023-03-14T15:46:18;19.30;;;3.83;;
52025;SDS011;38041;40.058;18.328;2023-03-14T15:48:47;17.83;;;3.80;;
52025;SDS011;38041;40.058;18.328;2023-03-14T15:51:15;19.33;;;5.93;;
52025;SDS011;38041;40.058;18.328;2023-03-14T15:53:43;17.63;;;4.30;;
52025;SDS011;38041;40.058;18.328;2023-03-14T15:56:11;17.47;;;4.93;;
52025;SDS011;38041;40.058;18.328;2023-03-14T15:58:39;18.80;;;3.57;;
52025;SDS011;38041;40.058;18.328;2023-03-14T16:01:08;22.80;;;8.27;;